sensor_id;sensor_type;location;lat;lon;timestamp;P1;durP1;ratioP1;P2;durP2;ratioP2
48975;SDS011;34791;52.752;8.346;2023-04-25T00:01:08;28.73;;;5.50;;
48975;SDS011;34791;52.752;8.346;2023-04-25T00:03:34;23.50;;;5.90;;
48975;SDS011;34791;52.752;8.346;2023-04-25T00:06:00;23.23;;;5.40;;
48975;SDS011;34791;52.752;8.346;2023-04-25T00:08:28;20.60;;;5.67;;
48975;SDS011;34791;52.752;8.346;2023-04-25T00:10:54;27.43;;;5.50;;
48975;SDS011;34791;52.752;8.346;2023-04-25T00:13:19;24.43;;;5.50;;
48975;SDS011;34791;52.752;8.346;2023-04-25T00:15:45;25.23;;;5.27;;
48975;SDS011;34791;52.752;8.346;2023-04-25T00:18:11;33.73;;;5.80;;
48975;SDS011;34791;52.752;8.346;2023-04-25T00:20:36;25.97;;;6.07;;
48975;SDS011;34791;52.752;8.346;2023-04-25T00:23:01;26.40;;;5.37;;
48975;SDS011;34791;52.752;8.346;2023-04-25T00:25:27;23.50;;;5.10;;
48975;SDS011;34791;52.752;8.346;2023-04-25T00:27:52;28.67;;;6.30;;
48975;SDS011;34791;52.752;8.346;2023-04-25T00:30:17;29.50;;;6.10;;
48975;SDS011;34791;52.752;8.346;2023-04-25T00:32:43;30.90;;;6.67;;
48975;SDS011;34791;52.752;8.346;2023-04-25T00:35:08;23.27;;;5.60;;
48975;SDS011;34791;52.752;8.346;2023-04-25T00:37:34;20.83;;;4.90;;
48975;SDS011;34791;52.752;8.346;2023-04-25T00:40:00;33.53;;;5.63;;
48975;SDS011;34791;52.752;8.346;2023-04-25T00:42:25;34.90;;;6.00;;
48975;SDS011;34791;52.752;8.346;2023-04-25T00:44:51;33.17;;;6.23;;
48975;SDS011;34791;52.752;8.346;2023-04-25T00:47:17;25.23;;;5.77;;
48975;SDS011;34791;52.752;8.346;2023-04-25T00:49:42;31.63;;;6.03;;
48975;SDS011;34791;52.752;8.346;2023-04-25T00:52:08;34.17;;;5.87;;
48975;SDS011;34791;52.752;8.346;2023-04-25T00:54:33;33.20;;;6.20;;
48975;SDS011;34791;52.752;8.346;2023-04-25T00:56:58;37.13;;;6.67;;
48975;SDS011;34791;52.752;8.346;2023-04-25T00:59:25;33.17;;;5.63;;
48975;SDS011;34791;52.752;8.346;2023-04-25T01:01:52;37.93;;;6.80;;
48975;SDS011;34791;52.752;8.346;2023-04-25T01:04:17;27.87;;;6.57;;
48975;SDS011;34791;52.752;8.346;2023-04-25T01:06:42;26.70;;;6.23;;
48975;SDS011;34791;52.752;8.346;2023-04-25T01:09:08;45.40;;;6.77;;
48975;SDS011;34791;52.752;8.346;2023-04-25T01:11:33;22.90;;;5.50;;
48975;SDS011;34791;52.752;8.346;2023-04-25T01:13:58;33.13;;;5.43;;
48975;SDS011;34791;52.752;8.346;2023-04-25T01:16:24;33.43;;;6.27;;
48975;SDS011;34791;52.752;8.346;2023-04-25T01:18:49;30.03;;;5.80;;
48975;SDS011;34791;52.752;8.346;2023-04-25T01:21:16;27.70;;;5.90;;
48975;SDS011;34791;52.752;8.346;2023-04-25T01:23:42;35.37;;;6.77;;
48975;SDS011;34791;52.752;8.346;2023-04-25T01:26:10;21.63;;;4.43;;
48975;SDS011;34791;52.752;8.346;2023-04-25T01:28:36;33.03;;;5.63;;
48975;SDS011;34791;52.752;8.346;2023-04-25T01:31:02;35.13;;;5.57;;
48975;SDS011;34791;52.752;8.346;2023-04-25T01:33:27;24.90;;;4.93;;
48975;SDS011;34791;52.752;8.346;2023-04-25T01:35:53;26.07;;;6.00;;
48975;SDS011;34791;52.752;8.346;2023-04-25T01:38:18;25.83;;;5.13;;
48975;SDS011;34791;52.752;8.346;2023-04-25T01:40:44;27.47;;;6.10;;
48975;SDS011;34791;52.752;8.346;2023-04-25T01:43:10;25.30;;;4.80;;
48975;SDS011;34791;52.752;8.346;2023-04-25T01:45:37;21.97;;;4.33;;
48975;SDS011;34791;52.752;8.346;2023-04-25T01:48:06;23.50;;;4.73;;
48975;SDS011;34791;52.752;8.346;2023-04-25T01:50:31;23.57;;;4.37;;
48975;SDS011;34791;52.752;8.346;2023-04-25T01:52:56;29.83;;;5.13;;
48975;SDS011;34791;52.752;8.346;2023-04-25T01:55:22;24.33;;;4.70;;
48975;SDS011;34791;52.752;8.346;2023-04-25T01:57:47;26.43;;;4.90;;
48975;SDS011;34791;52.752;8.346;2023-04-25T02:00:12;22.43;;;4.60;;
48975;SDS011;34791;52.752;8.346;2023-04-25T02:02:38;24.97;;;4.70;;
48975;SDS011;34791;52.752;8.346;2023-04-25T02:05:03;21.73;;;4.63;;
48975;SDS011;34791;52.752;8.346;2023-04-25T02:07:29;24.17;;;4.47;;
48975;SDS011;34791;52.752;8.346;2023-04-25T02:09:54;25.17;;;5.10;;
48975;SDS011;34791;52.752;8.346;2023-04-25T02:12:20;24.07;;;4.50;;
48975;SDS011;34791;52.752;8.346;2023-04-25T02:14:45;26.90;;;5.33;;
48975;SDS011;34791;52.752;8.346;2023-04-25T02:17:10;21.13;;;5.03;;
48975;SDS011;34791;52.752;8.346;2023-04-25T02:19:37;20.23;;;4.00;;
48975;SDS011;34791;52.752;8.346;2023-04-25T02:22:02;21.37;;;4.53;;
48975;SDS011;34791;52.752;8.346;2023-04-25T02:24:28;21.77;;;5.60;;
48975;SDS011;34791;52.752;8.346;2023-04-25T02:26:53;23.37;;;4.23;;
48975;SDS011;34791;52.752;8.346;2023-04-25T02:29:20;19.90;;;4.40;;
48975;SDS011;34791;52.752;8.346;2023-04-25T02:31:45;24.63;;;4.93;;
48975;SDS011;34791;52.752;8.346;2023-04-25T02:34:11;27.33;;;5.40;;
48975;SDS011;34791;52.752;8.346;2023-04-25T02:36:36;25.37;;;4.93;;
48975;SDS011;34791;52.752;8.346;2023-04-25T02:39:01;20.90;;;4.60;;
48975;SDS011;34791;52.752;8.346;2023-04-25T02:41:28;26.90;;;5.10;;
48975;SDS011;34791;52.752;8.346;2023-04-25T02:43:53;31.57;;;4.70;;
48975;SDS011;34791;52.752;8.346;2023-04-25T02:46:18;23.77;;;4.47;;
48975;SDS011;34791;52.752;8.346;2023-04-25T02:48:44;24.67;;;4.60;;
48975;SDS011;34791;52.752;8.346;2023-04-25T02:51:09;24.53;;;5.00;;
48975;SDS011;34791;52.752;8.346;2023-04-25T02:53:34;20.70;;;4.47;;
48975;SDS011;34791;52.752;8.346;2023-04-25T02:56:00;25.70;;;4.90;;
48975;SDS011;34791;52.752;8.346;2023-04-25T02:58:25;21.00;;;4.80;;
48975;SDS011;34791;52.752;8.346;2023-04-25T03:00:50;22.17;;;5.33;;
48975;SDS011;34791;52.752;8.346;2023-04-25T03:03:15;18.73;;;4.93;;
48975;SDS011;34791;52.752;8.346;2023-04-25T03:05:43;24.10;;;4.43;;
48975;SDS011;34791;52.752;8.346;2023-04-25T03:08:08;27.60;;;5.40;;
48975;SDS011;34791;52.752;8.346;2023-04-25T03:10:33;28.60;;;4.93;;
48975;SDS011;34791;52.752;8.346;2023-04-25T03:12:59;26.50;;;4.53;;
48975;SDS011;34791;52.752;8.346;2023-04-25T03:15:24;26.13;;;5.03;;
48975;SDS011;34791;52.752;8.346;2023-04-25T03:17:49;36.20;;;5.10;;
48975;SDS011;34791;52.752;8.346;2023-04-25T03:20:15;19.80;;;4.13;;
48975;SDS011;34791;52.752;8.346;2023-04-25T03:22:40;25.50;;;4.47;;
48975;SDS011;34791;52.752;8.346;2023-04-25T03:25:06;26.30;;;4.63;;
48975;SDS011;34791;52.752;8.346;2023-04-25T03:27:32;15.67;;;4.00;;
48975;SDS011;34791;52.752;8.346;2023-04-25T03:29:57;26.70;;;4.60;;
48975;SDS011;34791;52.752;8.346;2023-04-25T03:32:22;18.17;;;4.40;;
48975;SDS011;34791;52.752;8.346;2023-04-25T03:34:47;24.47;;;4.63;;
48975;SDS011;34791;52.752;8.346;2023-04-25T03:37:13;20.27;;;4.30;;
48975;SDS011;34791;52.752;8.346;2023-04-25T03:39:38;20.83;;;4.43;;
48975;SDS011;34791;52.752;8.346;2023-04-25T03:42:03;22.43;;;4.27;;
48975;SDS011;34791;52.752;8.346;2023-04-25T03:44:29;24.60;;;5.63;;
48975;SDS011;34791;52.752;8.346;2023-04-25T03:46:54;27.10;;;4.23;;
48975;SDS011;34791;52.752;8.346;2023-04-25T03:49:20;23.47;;;4.07;;
48975;SDS011;34791;52.752;8.346;2023-04-25T03:51:45;24.90;;;4.53;;
48975;SDS011;34791;52.752;8.346;2023-04-25T03:54:11;15.10;;;3.93;;
48975;SDS011;34791;52.752;8.346;2023-04-25T03:56:36;22.93;;;5.03;;
48975;SDS011;34791;52.752;8.346;2023-04-25T03:59:01;19.93;;;4.30;;
48975;SDS011;34791;52.752;8.346;2023-04-25T04:01:26;20.13;;;4.90;;
48975;SDS011;34791;52.752;8.346;2023-04-25T04:03:52;21.27;;;5.53;;
48975;SDS011;34791;52.752;8.346;2023-04-25T04:06:17;20.40;;;4.87;;
48975;SDS011;34791;52.752;8.346;2023-04-25T04:08:43;24.33;;;4.33;;
48975;SDS011;34791;52.752;8.346;2023-04-25T04:11:08;25.17;;;4.53;;
48975;SDS011;34791;52.752;8.346;2023-04-25T04:13:33;15.50;;;4.27;;
48975;SDS011;34791;52.752;8.346;2023-04-25T04:15:59;25.17;;;5.33;;
48975;SDS011;34791;52.752;8.346;2023-04-25T04:18:24;21.97;;;4.80;;
48975;SDS011;34791;52.752;8.346;2023-04-25T04:20:49;16.03;;;4.37;;
48975;SDS011;34791;52.752;8.346;2023-04-25T04:23:15;23.33;;;5.10;;
48975;SDS011;34791;52.752;8.346;2023-04-25T04:25:40;18.40;;;4.50;;
48975;SDS011;34791;52.752;8.346;2023-04-25T04:28:06;21.07;;;4.50;;
48975;SDS011;34791;52.752;8.346;2023-04-25T04:30:32;21.70;;;4.60;;
48975;SDS011;34791;52.752;8.346;2023-04-25T04:32:58;20.70;;;4.40;;
48975;SDS011;34791;52.752;8.346;2023-04-25T04:35:23;24.43;;;5.13;;
48975;SDS011;34791;52.752;8.346;2023-04-25T04:37:49;19.67;;;4.63;;
48975;SDS011;34791;52.752;8.346;2023-04-25T04:40:15;23.23;;;4.80;;
48975;SDS011;34791;52.752;8.346;2023-04-25T04:42:41;22.00;;;4.60;;
48975;SDS011;34791;52.752;8.346;2023-04-25T04:45:07;16.67;;;4.70;;
48975;SDS011;34791;52.752;8.346;2023-04-25T04:47:33;18.90;;;4.30;;
48975;SDS011;34791;52.752;8.346;2023-04-25T04:49:59;28.30;;;6.23;;
48975;SDS011;34791;52.752;8.346;2023-04-25T04:52:24;24.77;;;5.27;;
48975;SDS011;34791;52.752;8.346;2023-04-25T04:54:49;16.03;;;4.10;;
48975;SDS011;34791;52.752;8.346;2023-04-25T04:57:14;20.37;;;4.43;;
48975;SDS011;34791;52.752;8.346;2023-04-25T04:59:41;23.87;;;4.47;;
48975;SDS011;34791;52.752;8.346;2023-04-25T05:02:06;22.97;;;4.27;;
48975;SDS011;34791;52.752;8.346;2023-04-25T05:04:32;13.87;;;4.00;;
48975;SDS011;34791;52.752;8.346;2023-04-25T05:06:57;15.03;;;3.87;;
48975;SDS011;34791;52.752;8.346;2023-04-25T05:09:22;27.73;;;5.50;;
48975;SDS011;34791;52.752;8.346;2023-04-25T05:11:50;15.20;;;3.80;;
48975;SDS011;34791;52.752;8.346;2023-04-25T05:14:16;25.87;;;4.77;;
48975;SDS011;34791;52.752;8.346;2023-04-25T05:16:42;20.60;;;4.63;;
48975;SDS011;34791;52.752;8.346;2023-04-25T05:19:07;22.00;;;4.60;;
48975;SDS011;34791;52.752;8.346;2023-04-25T05:21:32;21.17;;;4.07;;
48975;SDS011;34791;52.752;8.346;2023-04-25T05:23:58;19.93;;;4.60;;
48975;SDS011;34791;52.752;8.346;2023-04-25T05:26:23;18.03;;;4.10;;
48975;SDS011;34791;52.752;8.346;2023-04-25T05:28:48;24.13;;;4.00;;
48975;SDS011;34791;52.752;8.346;2023-04-25T05:31:15;11.30;;;3.40;;
48975;SDS011;34791;52.752;8.346;2023-04-25T05:33:41;21.27;;;4.13;;
48975;SDS011;34791;52.752;8.346;2023-04-25T05:36:06;18.77;;;3.53;;
48975;SDS011;34791;52.752;8.346;2023-04-25T05:38:32;10.40;;;2.80;;
48975;SDS011;34791;52.752;8.346;2023-04-25T05:40:57;14.53;;;2.70;;
48975;SDS011;34791;52.752;8.346;2023-04-25T05:43:22;10.73;;;2.53;;
48975;SDS011;34791;52.752;8.346;2023-04-25T05:45:48;13.07;;;2.83;;
48975;SDS011;34791;52.752;8.346;2023-04-25T05:48:13;13.10;;;2.50;;
48975;SDS011;34791;52.752;8.346;2023-04-25T05:50:38;10.03;;;2.77;;
48975;SDS011;34791;52.752;8.346;2023-04-25T05:53:04;14.83;;;2.67;;
48975;SDS011;34791;52.752;8.346;2023-04-25T05:55:30;10.63;;;2.53;;
48975;SDS011;34791;52.752;8.346;2023-04-25T05:57:56;13.13;;;2.30;;
48975;SDS011;34791;52.752;8.346;2023-04-25T06:00:21;14.90;;;3.07;;
48975;SDS011;34791;52.752;8.346;2023-04-25T06:02:47;9.47;;;2.47;;
48975;SDS011;34791;52.752;8.346;2023-04-25T06:05:13;13.30;;;3.40;;
48975;SDS011;34791;52.752;8.346;2023-04-25T06:07:38;9.90;;;2.87;;
48975;SDS011;34791;52.752;8.346;2023-04-25T06:10:04;13.27;;;2.33;;
48975;SDS011;34791;52.752;8.346;2023-04-25T06:12:31;9.60;;;2.27;;
48975;SDS011;34791;52.752;8.346;2023-04-25T06:14:56;14.53;;;2.47;;
48975;SDS011;34791;52.752;8.346;2023-04-25T06:17:22;10.80;;;2.00;;
48975;SDS011;34791;52.752;8.346;2023-04-25T06:19:47;9.60;;;2.00;;
48975;SDS011;34791;52.752;8.346;2023-04-25T06:22:12;10.43;;;2.20;;
48975;SDS011;34791;52.752;8.346;2023-04-25T06:24:38;13.20;;;2.30;;
48975;SDS011;34791;52.752;8.346;2023-04-25T06:27:03;13.37;;;2.30;;
48975;SDS011;34791;52.752;8.346;2023-04-25T06:29:28;10.73;;;1.90;;
48975;SDS011;34791;52.752;8.346;2023-04-25T06:31:53;8.57;;;2.30;;
48975;SDS011;34791;52.752;8.346;2023-04-25T06:34:19;10.50;;;1.70;;
48975;SDS011;34791;52.752;8.346;2023-04-25T06:36:44;10.20;;;1.97;;
48975;SDS011;34791;52.752;8.346;2023-04-25T06:39:10;13.30;;;2.67;;
48975;SDS011;34791;52.752;8.346;2023-04-25T06:41:35;9.30;;;1.93;;
48975;SDS011;34791;52.752;8.346;2023-04-25T06:44:00;8.87;;;1.73;;
48975;SDS011;34791;52.752;8.346;2023-04-25T06:46:26;9.43;;;2.10;;
48975;SDS011;34791;52.752;8.346;2023-04-25T06:48:51;7.53;;;2.13;;
48975;SDS011;34791;52.752;8.346;2023-04-25T06:51:16;12.70;;;2.37;;
48975;SDS011;34791;52.752;8.346;2023-04-25T06:53:42;9.23;;;2.20;;
48975;SDS011;34791;52.752;8.346;2023-04-25T06:56:08;10.10;;;2.37;;
48975;SDS011;34791;52.752;8.346;2023-04-25T06:58:33;13.60;;;2.97;;
48975;SDS011;34791;52.752;8.346;2023-04-25T07:00:58;13.13;;;3.50;;
48975;SDS011;34791;52.752;8.346;2023-04-25T07:03:23;12.33;;;2.30;;
48975;SDS011;34791;52.752;8.346;2023-04-25T07:05:49;7.40;;;1.90;;
48975;SDS011;34791;52.752;8.346;2023-04-25T07:08:15;12.13;;;3.20;;
48975;SDS011;34791;52.752;8.346;2023-04-25T07:10:40;14.00;;;2.83;;
48975;SDS011;34791;52.752;8.346;2023-04-25T07:13:05;11.13;;;3.17;;
48975;SDS011;34791;52.752;8.346;2023-04-25T07:15:31;9.50;;;2.60;;
48975;SDS011;34791;52.752;8.346;2023-04-25T07:17:56;13.10;;;2.57;;
48975;SDS011;34791;52.752;8.346;2023-04-25T07:20:21;11.23;;;1.80;;
48975;SDS011;34791;52.752;8.346;2023-04-25T07:22:46;16.20;;;3.80;;
48975;SDS011;34791;52.752;8.346;2023-04-25T07:25:12;11.17;;;2.03;;
48975;SDS011;34791;52.752;8.346;2023-04-25T07:27:37;8.77;;;2.20;;
48975;SDS011;34791;52.752;8.346;2023-04-25T07:30:03;9.53;;;2.40;;
48975;SDS011;34791;52.752;8.346;2023-04-25T07:32:28;11.05;;;2.28;;
48975;SDS011;34791;52.752;8.346;2023-04-25T07:34:54;8.82;;;1.80;;
48975;SDS011;34791;52.752;8.346;2023-04-25T07:37:19;9.40;;;1.55;;
48975;SDS011;34791;52.752;8.346;2023-04-25T07:39:45;8.07;;;2.05;;
48975;SDS011;34791;52.752;8.346;2023-04-25T07:42:13;10.13;;;1.70;;
48975;SDS011;34791;52.752;8.346;2023-04-25T07:44:38;13.43;;;2.10;;
48975;SDS011;34791;52.752;8.346;2023-04-25T07:47:08;9.18;;;1.95;;
48975;SDS011;34791;52.752;8.346;2023-04-25T07:49:34;8.70;;;1.95;;
48975;SDS011;34791;52.752;8.346;2023-04-25T07:51:59;10.00;;;1.90;;
48975;SDS011;34791;52.752;8.346;2023-04-25T07:54:25;12.53;;;3.00;;
48975;SDS011;34791;52.752;8.346;2023-04-25T07:56:50;9.40;;;1.87;;
48975;SDS011;34791;52.752;8.346;2023-04-25T07:59:16;8.70;;;2.07;;
48975;SDS011;34791;52.752;8.346;2023-04-25T08:01:41;10.03;;;1.53;;
48975;SDS011;34791;52.752;8.346;2023-04-25T08:04:06;9.27;;;1.57;;
48975;SDS011;34791;52.752;8.346;2023-04-25T08:06:32;12.13;;;2.03;;
48975;SDS011;34791;52.752;8.346;2023-04-25T08:08:57;12.43;;;2.57;;
48975;SDS011;34791;52.752;8.346;2023-04-25T08:11:23;9.63;;;2.50;;
48975;SDS011;34791;52.752;8.346;2023-04-25T08:13:48;10.10;;;1.90;;
48975;SDS011;34791;52.752;8.346;2023-04-25T08:16:13;11.45;;;1.65;;
48975;SDS011;34791;52.752;8.346;2023-04-25T08:18:38;5.93;;;1.23;;
48975;SDS011;34791;52.752;8.346;2023-04-25T08:21:04;8.57;;;1.38;;
48975;SDS011;34791;52.752;8.346;2023-04-25T08:23:29;7.72;;;1.90;;
48975;SDS011;34791;52.752;8.346;2023-04-25T08:25:55;11.40;;;1.77;;
48975;SDS011;34791;52.752;8.346;2023-04-25T08:28:20;9.00;;;1.40;;
48975;SDS011;34791;52.752;8.346;2023-04-25T08:30:45;5.90;;;1.20;;
48975;SDS011;34791;52.752;8.346;2023-04-25T08:33:10;9.47;;;1.20;;
48975;SDS011;34791;52.752;8.346;2023-04-25T08:35:36;8.97;;;1.03;;
48975;SDS011;34791;52.752;8.346;2023-04-25T08:38:01;6.90;;;1.43;;
48975;SDS011;34791;52.752;8.346;2023-04-25T08:40:27;12.70;;;1.73;;
48975;SDS011;34791;52.752;8.346;2023-04-25T08:42:55;11.30;;;2.10;;
48975;SDS011;34791;52.752;8.346;2023-04-25T08:45:21;5.60;;;1.23;;
48975;SDS011;34791;52.752;8.346;2023-04-25T08:47:47;7.70;;;1.48;;
48975;SDS011;34791;52.752;8.346;2023-04-25T08:50:13;9.10;;;1.70;;
48975;SDS011;34791;52.752;8.346;2023-04-25T08:52:45;7.57;;;1.70;;
48975;SDS011;34791;52.752;8.346;2023-04-25T08:55:12;6.30;;;1.35;;
48975;SDS011;34791;52.752;8.346;2023-04-25T08:57:38;9.20;;;1.67;;
48975;SDS011;34791;52.752;8.346;2023-04-25T09:00:03;6.50;;;1.50;;
48975;SDS011;34791;52.752;8.346;2023-04-25T09:02:29;10.52;;;2.15;;
48975;SDS011;34791;52.752;8.346;2023-04-25T09:04:54;7.85;;;1.40;;
48975;SDS011;34791;52.752;8.346;2023-04-25T09:07:20;9.32;;;1.42;;
48975;SDS011;34791;52.752;8.346;2023-04-25T09:09:46;9.27;;;1.70;;
48975;SDS011;34791;52.752;8.346;2023-04-25T09:12:11;8.38;;;1.65;;
48975;SDS011;34791;52.752;8.346;2023-04-25T09:14:37;7.30;;;1.40;;
48975;SDS011;34791;52.752;8.346;2023-04-25T09:17:03;6.80;;;1.67;;
48975;SDS011;34791;52.752;8.346;2023-04-25T09:19:33;7.97;;;1.60;;
48975;SDS011;34791;52.752;8.346;2023-04-25T09:22:01;8.73;;;1.85;;
48975;SDS011;34791;52.752;8.346;2023-04-25T09:24:31;7.33;;;1.50;;
48975;SDS011;34791;52.752;8.346;2023-04-25T09:26:57;6.37;;;1.50;;
48975;SDS011;34791;52.752;8.346;2023-04-25T09:29:28;6.90;;;1.87;;
48975;SDS011;34791;52.752;8.346;2023-04-25T09:31:55;7.80;;;1.77;;
48975;SDS011;34791;52.752;8.346;2023-04-25T09:34:48;10.77;;;1.85;;
48975;SDS011;34791;52.752;8.346;2023-04-25T09:37:32;5.33;;;1.50;;
48975;SDS011;34791;52.752;8.346;2023-04-25T09:39:58;4.87;;;1.17;;
48975;SDS011;34791;52.752;8.346;2023-04-25T09:42:30;6.43;;;1.63;;
48975;SDS011;34791;52.752;8.346;2023-04-25T09:44:57;6.27;;;1.40;;
48975;SDS011;34791;52.752;8.346;2023-04-25T09:47:23;6.00;;;1.23;;
48975;SDS011;34791;52.752;8.346;2023-04-25T09:49:49;4.63;;;1.00;;
48975;SDS011;34791;52.752;8.346;2023-04-25T09:52:18;4.37;;;1.00;;
48975;SDS011;34791;52.752;8.346;2023-04-25T09:54:44;6.50;;;1.10;;
48975;SDS011;34791;52.752;8.346;2023-04-25T09:57:14;2.83;;;1.00;;
48975;SDS011;34791;52.752;8.346;2023-04-25T09:59:42;4.83;;;1.00;;
48975;SDS011;34791;52.752;8.346;2023-04-25T10:02:08;4.60;;;1.00;;
48975;SDS011;34791;52.752;8.346;2023-04-25T10:04:34;2.90;;;0.70;;
48975;SDS011;34791;52.752;8.346;2023-04-25T10:07:00;7.57;;;1.00;;
48975;SDS011;34791;52.752;8.346;2023-04-25T10:09:26;6.73;;;1.20;;
48975;SDS011;34791;52.752;8.346;2023-04-25T10:11:56;5.97;;;1.30;;
48975;SDS011;34791;52.752;8.346;2023-04-25T10:14:22;7.83;;;1.10;;
48975;SDS011;34791;52.752;8.346;2023-04-25T10:16:48;5.17;;;1.27;;
48975;SDS011;34791;52.752;8.346;2023-04-25T10:19:14;5.93;;;1.30;;
48975;SDS011;34791;52.752;8.346;2023-04-25T10:21:48;6.17;;;1.17;;
48975;SDS011;34791;52.752;8.346;2023-04-25T10:24:15;6.75;;;1.27;;
48975;SDS011;34791;52.752;8.346;2023-04-25T10:26:40;6.05;;;1.17;;
48975;SDS011;34791;52.752;8.346;2023-04-25T10:29:06;7.00;;;1.30;;
48975;SDS011;34791;52.752;8.346;2023-04-25T10:31:31;8.07;;;1.40;;
48975;SDS011;34791;52.752;8.346;2023-04-25T10:33:56;5.47;;;1.20;;
48975;SDS011;34791;52.752;8.346;2023-04-25T10:36:22;6.80;;;1.10;;
48975;SDS011;34791;52.752;8.346;2023-04-25T10:38:48;5.70;;;1.30;;
48975;SDS011;34791;52.752;8.346;2023-04-25T10:41:15;11.95;;;2.55;;
48975;SDS011;34791;52.752;8.346;2023-04-25T10:43:43;3.85;;;1.15;;
48975;SDS011;34791;52.752;8.346;2023-04-25T10:46:13;6.40;;;1.50;;
48975;SDS011;34791;52.752;8.346;2023-04-25T10:48:38;9.93;;;1.37;;
48975;SDS011;34791;52.752;8.346;2023-04-25T10:51:11;7.47;;;1.33;;
48975;SDS011;34791;52.752;8.346;2023-04-25T10:53:37;7.80;;;1.27;;
48975;SDS011;34791;52.752;8.346;2023-04-25T10:56:09;6.53;;;1.50;;
48975;SDS011;34791;52.752;8.346;2023-04-25T10:58:34;7.60;;;1.50;;
48975;SDS011;34791;52.752;8.346;2023-04-25T11:01:00;6.27;;;1.40;;
48975;SDS011;34791;52.752;8.346;2023-04-25T11:03:26;8.13;;;1.57;;
48975;SDS011;34791;52.752;8.346;2023-04-25T11:05:51;7.20;;;1.50;;
48975;SDS011;34791;52.752;8.346;2023-04-25T11:08:17;7.43;;;1.57;;
48975;SDS011;34791;52.752;8.346;2023-04-25T11:10:48;6.57;;;1.42;;
48975;SDS011;34791;52.752;8.346;2023-04-25T11:13:15;5.70;;;1.40;;
48975;SDS011;34791;52.752;8.346;2023-04-25T11:15:41;8.97;;;2.57;;
48975;SDS011;34791;52.752;8.346;2023-04-25T11:18:06;7.33;;;1.50;;
48975;SDS011;34791;52.752;8.346;2023-04-25T11:20:31;10.37;;;2.00;;
48975;SDS011;34791;52.752;8.346;2023-04-25T11:22:57;8.33;;;1.40;;
48975;SDS011;34791;52.752;8.346;2023-04-25T11:25:22;5.47;;;1.60;;
48975;SDS011;34791;52.752;8.346;2023-04-25T11:27:51;8.37;;;2.00;;
48975;SDS011;34791;52.752;8.346;2023-04-25T11:30:17;9.00;;;1.55;;
48975;SDS011;34791;52.752;8.346;2023-04-25T11:32:43;6.15;;;1.20;;
48975;SDS011;34791;52.752;8.346;2023-04-25T11:35:09;7.80;;;1.40;;
48975;SDS011;34791;52.752;8.346;2023-04-25T11:37:34;5.57;;;1.33;;
48975;SDS011;34791;52.752;8.346;2023-04-25T11:40:00;7.82;;;1.40;;
48975;SDS011;34791;52.752;8.346;2023-04-25T11:42:25;8.95;;;1.30;;
48975;SDS011;34791;52.752;8.346;2023-04-25T11:44:51;6.70;;;1.30;;
48975;SDS011;34791;52.752;8.346;2023-04-25T11:47:17;10.57;;;1.30;;
48975;SDS011;34791;52.752;8.346;2023-04-25T11:49:42;8.48;;;1.67;;
48975;SDS011;34791;52.752;8.346;2023-04-25T11:52:07;4.55;;;1.25;;
48975;SDS011;34791;52.752;8.346;2023-04-25T11:54:36;8.90;;;1.80;;
48975;SDS011;34791;52.752;8.346;2023-04-25T11:57:02;13.67;;;2.67;;
48975;SDS011;34791;52.752;8.346;2023-04-25T11:59:28;9.23;;;2.00;;
48975;SDS011;34791;52.752;8.346;2023-04-25T12:01:53;7.00;;;1.83;;
48975;SDS011;34791;52.752;8.346;2023-04-25T12:04:20;5.43;;;1.30;;
48975;SDS011;34791;52.752;8.346;2023-04-25T12:06:46;6.90;;;1.67;;
48975;SDS011;34791;52.752;8.346;2023-04-25T12:09:13;7.20;;;1.60;;
48975;SDS011;34791;52.752;8.346;2023-04-25T12:11:45;7.70;;;1.80;;
48975;SDS011;34791;52.752;8.346;2023-04-25T12:14:11;6.47;;;1.57;;
48975;SDS011;34791;52.752;8.346;2023-04-25T12:16:43;5.60;;;1.13;;
48975;SDS011;34791;52.752;8.346;2023-04-25T12:21:34;4.03;;;1.33;;
48975;SDS011;34791;52.752;8.346;2023-04-25T12:24:15;6.10;;;1.00;;
48975;SDS011;34791;52.752;8.346;2023-04-25T12:27:00;5.07;;;1.35;;
48975;SDS011;34791;52.752;8.346;2023-04-25T12:29:26;4.57;;;1.10;;
48975;SDS011;34791;52.752;8.346;2023-04-25T12:31:53;4.63;;;1.03;;
48975;SDS011;34791;52.752;8.346;2023-04-25T12:34:19;4.77;;;1.23;;
48975;SDS011;34791;52.752;8.346;2023-04-25T12:36:44;5.90;;;1.10;;
48975;SDS011;34791;52.752;8.346;2023-04-25T12:39:16;7.03;;;1.20;;
48975;SDS011;34791;52.752;8.346;2023-04-25T12:44:06;8.25;;;1.63;;
48975;SDS011;34791;52.752;8.346;2023-04-25T12:46:31;8.68;;;1.50;;
48975;SDS011;34791;52.752;8.346;2023-04-25T12:48:57;5.72;;;1.42;;
48975;SDS011;34791;52.752;8.346;2023-04-25T12:51:22;5.57;;;1.10;;
48975;SDS011;34791;52.752;8.346;2023-04-25T12:53:49;7.10;;;1.60;;
48975;SDS011;34791;52.752;8.346;2023-04-25T12:56:15;7.97;;;1.63;;
48975;SDS011;34791;52.752;8.346;2023-04-25T12:58:40;5.33;;;1.20;;
48975;SDS011;34791;52.752;8.346;2023-04-25T13:01:06;10.40;;;1.73;;
48975;SDS011;34791;52.752;8.346;2023-04-25T13:03:32;3.13;;;0.80;;
48975;SDS011;34791;52.752;8.346;2023-04-25T13:05:57;5.37;;;1.27;;
48975;SDS011;34791;52.752;8.346;2023-04-25T13:08:23;6.93;;;1.13;;
48975;SDS011;34791;52.752;8.346;2023-04-25T13:10:48;10.13;;;1.50;;
48975;SDS011;34791;52.752;8.346;2023-04-25T13:13:13;8.17;;;1.50;;
48975;SDS011;34791;52.752;8.346;2023-04-25T13:15:39;9.67;;;1.73;;
48975;SDS011;34791;52.752;8.346;2023-04-25T13:18:04;5.53;;;1.07;;
48975;SDS011;34791;52.752;8.346;2023-04-25T13:20:30;7.37;;;1.20;;
48975;SDS011;34791;52.752;8.346;2023-04-25T13:22:55;5.15;;;1.13;;
48975;SDS011;34791;52.752;8.346;2023-04-25T13:25:21;4.32;;;0.90;;
48975;SDS011;34791;52.752;8.346;2023-04-25T13:27:47;5.70;;;1.17;;
48975;SDS011;34791;52.752;8.346;2023-04-25T13:30:12;4.03;;;0.98;;
48975;SDS011;34791;52.752;8.346;2023-04-25T13:32:37;5.93;;;0.90;;
48975;SDS011;34791;52.752;8.346;2023-04-25T13:35:04;5.80;;;1.10;;
48975;SDS011;34791;52.752;8.346;2023-04-25T13:37:29;7.05;;;1.10;;
48975;SDS011;34791;52.752;8.346;2023-04-25T13:39:55;6.00;;;1.08;;
48975;SDS011;34791;52.752;8.346;2023-04-25T13:42:21;8.88;;;1.30;;
48975;SDS011;34791;52.752;8.346;2023-04-25T13:44:46;4.30;;;1.13;;
48975;SDS011;34791;52.752;8.346;2023-04-25T13:47:12;7.57;;;1.53;;
48975;SDS011;34791;52.752;8.346;2023-04-25T13:49:37;5.77;;;1.47;;
48975;SDS011;34791;52.752;8.346;2023-04-25T13:52:02;10.47;;;1.87;;
48975;SDS011;34791;52.752;8.346;2023-04-25T13:54:28;5.70;;;1.40;;
48975;SDS011;34791;52.752;8.346;2023-04-25T13:56:53;5.30;;;1.10;;
48975;SDS011;34791;52.752;8.346;2023-04-25T13:59:23;5.33;;;1.20;;
48975;SDS011;34791;52.752;8.346;2023-04-25T14:01:48;7.70;;;1.67;;
48975;SDS011;34791;52.752;8.346;2023-04-25T14:04:14;8.03;;;1.53;;
48975;SDS011;34791;52.752;8.346;2023-04-25T14:06:39;6.30;;;1.30;;
48975;SDS011;34791;52.752;8.346;2023-04-25T14:09:04;6.47;;;1.45;;
48975;SDS011;34791;52.752;8.346;2023-04-25T14:11:31;8.07;;;1.35;;
48975;SDS011;34791;52.752;8.346;2023-04-25T14:13:56;7.93;;;1.20;;
48975;SDS011;34791;52.752;8.346;2023-04-25T14:16:22;5.60;;;1.10;;
48975;SDS011;34791;52.752;8.346;2023-04-25T14:18:48;7.10;;;1.40;;
48975;SDS011;34791;52.752;8.346;2023-04-25T14:21:13;10.43;;;2.03;;
48975;SDS011;34791;52.752;8.346;2023-04-25T14:23:38;10.07;;;1.97;;
48975;SDS011;34791;52.752;8.346;2023-04-25T14:26:04;4.95;;;1.20;;
48975;SDS011;34791;52.752;8.346;2023-04-25T14:28:30;6.35;;;1.15;;
48975;SDS011;34791;52.752;8.346;2023-04-25T14:30:55;6.85;;;1.60;;
48975;SDS011;34791;52.752;8.346;2023-04-25T14:33:21;8.40;;;2.10;;
48975;SDS011;34791;52.752;8.346;2023-04-25T14:35:47;12.40;;;1.40;;
48975;SDS011;34791;52.752;8.346;2023-04-25T14:38:12;5.95;;;1.40;;